Time;durP1;ratioP1;P1;durP2;ratioP2;P2;SDS_P1;SDS_P2;PMS_P1;PMS_P2;Temp;Humidity;BMP_temperature;BMP_pressure;BME280_temperature;BME280_humidity;BME280_pressure;Samples;Min_cycle;Max_cycle;Signal;HPM_P1;HPM_P2
2023/09/20 00:00:57;;;;;;;15.02;9.00;;;;;;;17.14;53.82;99819.28;5055205;28;20036;-62
2023/09/20 00:03:25;;;;;;;12.60;9.20;;;;;;;17.08;54.25;99818.09;5055367;28;20091;-62
2023/09/20 00:05:52;;;;;;;11.00;8.70;;;;;;;17.06;54.19;99828.22;5055417;28;20045;-59
2023/09/20 00:08:18;;;;;;;12.48;9.02;;;;;;;17.05;54.18;99818.44;5055143;28;20047;-61
2023/09/20 00:10:45;;;;;;;10.40;9.05;;;;;;;16.99;54.36;99813.69;5054869;28;20124;-61
2023/09/20 00:13:14;;;;;;;12.63;8.80;;;;;;;17.03;54.32;99820.47;5055167;28;20049;-59
2023/09/20 00:15:43;;;;;;;17.02;9.05;;;;;;;16.97;54.42;99825.66;5055010;28;20037;-62
2023/09/20 00:18:09;;;;;;;10.25;8.50;;;;;;;16.91;54.45;99810.94;5055110;28;20047;-61
2023/09/20 00:20:36;;;;;;;12.05;9.57;;;;;;;16.88;54.58;99822.94;5055174;28;20029;-63
2023/09/20 00:23:03;;;;;;;10.40;8.50;;;;;;;16.88;54.76;99822.06;5054699;28;20029;-62
2023/09/20 00:25:29;;;;;;;15.50;9.05;;;;;;;16.83;54.70;99816.31;5055011;28;20048;-62
2023/09/20 00:27:54;;;;;;;10.93;8.50;;;;;;;16.82;54.64;99838.97;5055087;28;20463;-62
2023/09/20 00:30:20;;;;;;;13.30;8.77;;;;;;;16.76;54.62;99814.28;5054569;28;20401;-63
2023/09/20 00:32:46;;;;;;;14.13;9.43;;;;;;;16.83;54.54;99829.84;5054799;28;20029;-61
2023/09/20 00:35:14;;;;;;;11.02;9.15;;;;;;;16.79;54.53;99822.06;5055078;28;20047;-62
2023/09/20 00:37:41;;;;;;;10.10;9.02;;;;;;;16.70;54.68;99816.78;5054942;28;20045;-63
2023/09/20 00:40:21;;;;;;;11.25;9.23;;;;;;;16.68;54.85;99816.97;5054473;28;20341;-62
2023/09/20 00:42:49;;;;;;;12.88;9.00;;;;;;;16.70;54.89;99825.75;5054048;28;20047;-62
2023/09/20 00:45:15;;;;;;;12.50;8.90;;;;;;;16.62;54.97;99812.19;5054777;28;20124;-62
2023/09/20 00:47:51;;;;;;;11.23;8.90;;;;;;;16.69;54.92;99828.63;5054228;28;20048;-62
2023/09/20 00:50:17;;;;;;;11.45;9.02;;;;;;;16.63;55.05;99822.84;5054768;28;20033;-62
2023/09/20 00:52:51;;;;;;;12.70;8.90;;;;;;;16.60;54.94;99822.31;5054904;28;20087;-62
2023/09/20 00:55:21;;;;;;;12.70;9.10;;;;;;;16.60;55.13;99825.91;5054280;28;20052;-62
2023/09/20 00:57:51;;;;;;;10.25;8.95;;;;;;;16.56;55.14;99829.94;5054324;28;20033;-62
2023/09/20 01:00:21;;;;;;;13.32;9.35;;;;;;;16.48;55.45;99822.63;5054662;28;20036;-63
2023/09/20 01:02:51;;;;;;;10.93;9.15;;;;;;;16.43;55.69;99821.44;5053701;28;20021;-63
2023/09/20 01:05:21;;;;;;;11.20;9.45;;;;;;;16.43;55.67;99833.09;5054180;28;20527;-62
2023/09/20 01:07:49;;;;;;;12.73;9.20;;;;;;;16.41;55.89;99821.59;5054213;28;20086;-62
2023/09/20 01:10:15;;;;;;;14.38;9.57;;;;;;;16.41;55.62;99829.72;5054538;28;20025;-62
2023/09/20 01:12:41;;;;;;;11.57;8.88;;;;;;;16.38;55.82;99821.91;5054405;28;20052;-62
2023/09/20 01:15:07;;;;;;;10.70;8.48;;;;;;;16.35;55.56;99816.81;5054150;28;20395;-61
2023/09/20 01:17:45;;;;;;;13.10;9.02;;;;;;;16.45;55.75;99828.38;5053718;28;20090;-61
2023/09/20 01:20:19;;;;;;;13.77;9.70;;;;;;;16.27;55.78;99816.78;5054250;28;20057;-62
2023/09/20 01:22:51;;;;;;;11.15;9.98;;;;;;;16.26;55.90;99817.81;5054133;28;20485;-62
2023/09/20 01:25:30;;;;;;;11.63;9.35;;;;;;;16.40;56.04;99827.16;5053814;28;20025;-62
2023/09/20 01:27:58;;;;;;;13.90;9.63;;;;;;;16.28;56.04;99832.00;5053873;28;20041;-61
2023/09/20 01:30:26;;;;;;;12.77;9.73;;;;;;;16.25;56.04;99833.16;5053992;28;20025;-62
2023/09/20 01:32:53;;;;;;;14.18;9.82;;;;;;;16.25;55.82;99819.66;5054089;28;20053;-62
2023/09/20 01:35:19;;;;;;;10.23;8.60;;;;;;;16.30;55.80;99828.13;5053562;28;20367;-62
2023/09/20 01:37:45;;;;;;;13.30;9.80;;;;;;;16.25;55.92;99811.53;5053495;28;20029;-63
2023/09/20 01:40:18;;;;;;;13.95;9.43;;;;;;;16.25;55.90;99826.91;5054344;28;20025;-62
2023/09/20 01:42:48;;;;;;;15.47;9.07;;;;;;;16.31;55.79;99826.25;5053869;28;20102;-62
2023/09/20 01:45:18;;;;;;;11.32;9.02;;;;;;;16.28;55.62;99821.19;5053526;28;20490;-62
2023/09/20 01:47:49;;;;;;;16.27;9.52;;;;;;;16.26;55.78;99826.75;5053394;28;20029;-62
2023/09/20 01:50:19;;;;;;;11.55;9.00;;;;;;;16.21;55.86;99824.53;5053506;28;20131;-61
2023/09/20 01:52:49;;;;;;;13.88;9.43;;;;;;;16.24;56.00;99827.94;5053317;28;20044;-63
2023/09/20 01:55:21;;;;;;;12.38;8.80;;;;;;;16.17;56.13;99820.47;5053120;28;20104;-63
2023/09/20 01:57:48;;;;;;;12.20;9.25;;;;;;;16.21;55.85;99816.44;5053219;28;20025;-62
2023/09/20 02:00:25;;;;;;;13.68;9.93;;;;;;;16.13;55.87;99818.25;5052926;28;20036;-64
2023/09/20 02:02:55;;;;;;;13.45;9.48;;;;;;;16.20;55.77;99817.44;5053347;28;20033;-62
2023/09/20 02:05:25;;;;;;;12.55;9.50;;;;;;;16.13;55.94;99819.06;5053204;28;20082;-62
2023/09/20 02:07:52;;;;;;;12.00;8.93;;;;;;;15.92;56.16;99787.06;5052980;28;20037;-62
2023/09/20 02:10:18;;;;;;;12.38;8.73;;;;;;;16.03;56.20;99816.47;5052977;28;20469;-63
2023/09/20 02:12:51;;;;;;;12.63;9.02;;;;;;;16.08;56.42;99821.41;5052283;28;20118;-63
2023/09/20 02:15:18;;;;;;;12.25;9.43;;;;;;;16.03;56.56;99824.59;5053005;28;20040;-62
2023/09/20 02:17:45;;;;;;;14.35;9.85;;;;;;;15.92;56.43;99806.84;5052975;28;20037;-62
2023/09/20 02:20:19;;;;;;;11.27;8.90;;;;;;;15.97;56.29;99824.41;5052875;28;20363;-61
2023/09/20 02:22:47;;;;;;;13.40;9.57;;;;;;;16.01;56.47;99825.78;5053252;28;20032;-62
2023/09/20 02:25:32;;;;;;;13.95;9.23;;;;;;;15.99;56.16;99815.13;5052137;28;20070;-62
2023/09/20 02:27:58;;;;;;;13.18;9.80;;;;;;;15.95;56.31;99824.53;5053121;28;20037;-62
2023/09/20 02:30:32;;;;;;;12.32;9.10;;;;;;;15.97;56.09;99825.22;5053031;28;20360;-64
2023/09/20 02:32:58;;;;;;;15.55;8.30;;;;;;;15.97;56.35;99821.69;5052669;28;20098;-63
2023/09/20 02:35:28;;;;;;;12.07;9.25;;;;;;;16.01;56.17;99818.50;5052649;28;20040;-62
2023/09/20 02:37:54;;;;;;;14.70;9.43;;;;;;;15.97;55.92;99810.91;5052823;28;20438;-63
2023/09/20 02:40:24;;;;;;;15.75;9.35;;;;;;;15.93;56.18;99799.56;5052743;28;20144;-63
2023/09/20 02:42:55;;;;;;;12.27;9.57;;;;;;;15.93;56.01;99815.75;5052769;28;20068;-63
2023/09/20 02:45:22;;;;;;;13.52;8.68;;;;;;;15.92;56.05;99816.78;5052593;28;20032;-63
2023/09/20 02:47:48;;;;;;;11.52;8.77;;;;;;;15.86;56.20;99812.81;5052748;28;20412;-63
2023/09/20 02:50:23;;;;;;;10.50;8.82;;;;;;;15.85;56.39;99819.22;5052432;28;20178;-61
2023/09/20 02:52:51;;;;;;;15.10;9.45;;;;;;;15.81;56.20;99822.41;5052169;28;20086;-62
2023/09/20 02:55:20;;;;;;;11.25;9.18;;;;;;;15.78;55.81;99813.59;5052814;28;20112;-62
2023/09/20 02:57:50;;;;;;;11.95;8.65;;;;;;;15.76;56.17;99814.78;5052727;28;20033;-62
2023/09/20 03:00:18;;;;;;;12.88;9.02;;;;;;;15.80;56.09;99816.16;5052094;28;20071;-64
2023/09/20 03:02:45;;;;;;;11.05;9.55;;;;;;;15.78;56.21;99820.88;5052430;28;20033;-62
2023/09/20 03:05:16;;;;;;;12.52;8.90;;;;;;;15.86;55.93;99823.59;5052738;28;20083;-62
2023/09/20 03:07:46;;;;;;;11.82;9.20;;;;;;;15.86;56.03;99823.59;5053073;28;20025;-63
2023/09/20 03:10:13;;;;;;;10.95;9.23;;;;;;;15.79;56.15;99828.81;5052076;28;20454;-63
2023/09/20 03:12:44;;;;;;;11.30;9.13;;;;;;;15.83;55.92;99817.69;5051752;28;20460;-62
2023/09/20 03:15:11;;;;;;;9.75;8.65;;;;;;;15.80;56.07;99816.16;5052683;28;20095;-62
2023/09/20 03:17:42;;;;;;;11.43;9.15;;;;;;;15.82;55.73;99811.44;5052587;28;20095;-61
2023/09/20 03:20:11;;;;;;;10.95;9.20;;;;;;;15.72;55.84;99797.22;5052078;28;20044;-63
2023/09/20 03:22:38;;;;;;;13.63;9.13;;;;;;;15.80;55.96;99813.44;5052033;28;20040;-60
2023/09/20 03:25:09;;;;;;;10.65;8.52;;;;;;;15.76;55.89;99801.28;5054018;28;20029;-63
2023/09/20 03:27:40;;;;;;;11.43;9.82;;;;;;;15.86;55.71;99823.59;5056859;28;20037;-62
2023/09/20 03:30:08;;;;;;;12.43;9.27;;;;;;;15.89;55.59;99811.69;5056234;28;20032;-63
2023/09/20 03:32:33;;;;;;;13.07;8.60;;;;;;;15.89;55.61;99812.53;5056264;28;20531;-63
2023/09/20 03:34:59;;;;;;;12.95;9.18;;;;;;;15.97;55.33;99800.09;5056309;28;20211;-62
2023/09/20 03:37:25;;;;;;;15.38;9.43;;;;;;;16.03;55.12;99818.34;5056366;28;20033;-62
2023/09/20 03:39:51;;;;;;;13.45;9.57;;;;;;;16.10;54.79;99795.09;5055735;28;20040;-62
2023/09/20 03:42:17;;;;;;;15.40;8.98;;;;;;;16.16;54.80;99810.69;5055823;28;20032;-63
2023/09/20 03:44:42;;;;;;;12.88;8.90;;;;;;;16.20;54.37;99812.03;5055989;28;20589;-62
2023/09/20 03:47:08;;;;;;;14.02;9.45;;;;;;;16.26;54.77;99809.69;5056015;28;20104;-59
2023/09/20 03:49:33;;;;;;;12.27;9.13;;;;;;;16.33;54.34;99800.78;5055778;28;20033;-63
2023/09/20 03:52:00;;;;;;;12.82;8.68;;;;;;;16.43;54.05;99807.91;5055500;28;20436;-63
2023/09/20 03:54:26;;;;;;;12.40;9.07;;;;;;;16.46;53.51;99773.31;5054527;28;20130;-62
2023/09/20 03:56:52;;;;;;;15.38;9.75;;;;;;;17.66;50.97;99803.75;5055728;28;20507;-63
2023/09/20 03:59:18;;;;;;;14.25;8.05;;;;;;;19.05;47.52;99800.75;5055535;28;20098;-63
2023/09/20 04:01:43;;;;;;;12.13;8.00;;;;;;;20.20;44.46;99799.91;5054534;28;20083;-63
2023/09/20 04:04:09;;;;;;;13.93;8.85;;;;;;;21.08;42.21;99791.78;5055468;28;20060;-61
2023/09/20 04:06:35;;;;;;;14.00;8.63;;;;;;;21.94;39.85;99806.38;5055629;28;20052;-62
2023/09/20 04:09:09;;;;;;;9.80;8.18;;;;;;;22.69;38.56;99802.16;5055347;28;20032;-62
2023/09/20 04:11:39;;;;;;;10.05;8.15;;;;;;;23.52;37.51;99813.91;5055905;28;20128;-62
2023/09/20 04:14:08;;;;;;;12.15;8.10;;;;;;;24.14;35.62;99807.34;5055471;28;20537;-64
2023/09/20 04:16:39;;;;;;;9.68;8.05;;;;;;;24.87;34.55;99816.41;5055197;28;20048;-63
2023/09/20 04:19:06;;;;;;;11.93;8.27;;;;;;;25.45;33.20;99807.16;5055584;28;20053;-63
2023/09/20 04:21:31;;;;;;;11.30;8.07;;;;;;;26.04;32.18;99800.53;5055041;28;20040;-62
2023/09/20 04:23:58;;;;;;;9.73;7.85;;;;;;;26.67;31.21;99812.31;5055147;28;20025;-63
2023/09/20 04:26:23;;;;;;;9.68;8.13;;;;;;;27.23;30.10;99802.06;5055376;28;20108;-63
2023/09/20 04:28:49;;;;;;;11.48;7.82;;;;;;;27.79;29.33;99799.03;5054796;28;20108;-63
2023/09/20 04:31:15;;;;;;;9.25;7.32;;;;;;;28.42;27.98;99809.53;5054745;28;20037;-64
2023/09/20 04:33:40;;;;;;;10.38;7.22;;;;;;;29.06;26.90;99811.38;5055201;28;20078;-59
2023/09/20 04:36:06;;;;;;;9.98;7.22;;;;;;;29.61;25.99;99798.00;5054866;28;20087;-64
2023/09/20 04:38:32;;;;;;;10.23;7.63;;;;;;;30.05;25.69;99813.03;5054518;28;20025;-63
2023/09/20 04:40:59;;;;;;;7.63;6.78;;;;;;;30.50;24.60;99806.47;5054815;28;20025;-62
2023/09/20 04:43:25;;;;;;;11.65;6.97;;;;;;;30.97;23.92;99815.31;5055056;28;20093;-63
2023/09/20 04:45:52;;;;;;;13.05;7.38;;;;;;;31.31;23.34;99804.06;5054658;28;20028;-64
2023/09/20 04:48:17;;;;;;;13.55;7.00;;;;;;;31.71;22.88;99806.59;5054512;28;20025;-62
2023/09/20 04:50:43;;;;;;;9.75;6.95;;;;;;;32.00;22.34;99803.50;5054816;28;20060;-62
2023/09/20 04:53:08;;;;;;;10.85;6.95;;;;;;;32.55;22.01;99806.84;5055346;28;20513;-63
2023/09/20 04:55:34;;;;;;;10.57;6.75;;;;;;;33.18;21.37;99808.69;5054233;28;20359;-62
2023/09/20 04:58:00;;;;;;;8.77;6.82;;;;;;;33.58;20.49;99811.78;5054325;28;20389;-63
2023/09/20 05:00:33;;;;;;;8.63;6.72;;;;;;;34.15;20.15;99814.50;5054741;28;20112;-64
2023/09/20 05:03:02;;;;;;;9.13;6.10;;;;;;;34.86;19.65;99802.53;5054729;28;20036;-63
2023/09/20 05:05:27;;;;;;;8.77;6.65;;;;;;;35.16;19.18;99804.31;5054191;28;20029;-63
2023/09/20 05:07:53;;;;;;;10.48;6.70;;;;;;;35.60;18.17;99816.50;5053990;28;20325;-64
2023/09/20 05:10:19;;;;;;;9.68;6.70;;;;;;;36.00;18.12;99804.44;5054229;28;20033;-63
2023/09/20 05:12:47;;;;;;;9.48;6.50;;;;;;;36.37;17.68;99822.44;5054596;28;20053;-63
2023/09/20 05:15:13;;;;;;;10.70;6.97;;;;;;;36.61;17.45;99776.97;5054056;28;20150;-61
2023/09/20 05:17:39;;;;;;;10.45;6.75;;;;;;;37.06;16.95;99824.09;5053999;28;20052;-62
2023/09/20 05:20:06;;;;;;;8.50;6.38;;;;;;;37.44;16.54;99806.47;5054366;28;20033;-63
2023/09/20 05:22:33;;;;;;;10.43;6.75;;;;;;;37.91;16.09;99812.06;5054316;28;20029;-63
2023/09/20 05:24:58;;;;;;;10.98;6.68;;;;;;;38.27;15.85;99810.56;5053628;28;20423;-63
2023/09/20 05:27:24;;;;;;;8.20;6.30;;;;;;;38.74;15.07;99805.66;5053664;28;20057;-62
2023/09/20 05:29:50;;;;;;;10.60;6.80;;;;;;;38.85;15.10;99814.66;5053922;28;20036;-62
2023/09/20 05:32:16;;;;;;;8.93;7.10;;;;;;;39.13;14.79;99808.16;5053792;28;20036;-62
2023/09/20 05:34:46;;;;;;;15.93;6.95;;;;;;;39.32;14.19;99813.56;5054103;28;20025;-63
2023/09/20 05:37:12;;;;;;;12.07;6.20;;;;;;;39.29;14.53;99812.22;5053709;28;20094;-64
2023/09/20 05:39:38;;;;;;;9.15;6.60;;;;;;;39.18;14.90;99805.25;5053635;28;20033;-63
2023/09/20 05:42:05;;;;;;;7.85;6.80;;;;;;;39.25;14.88;99816.81;5053734;28;20608;-63
2023/09/20 05:44:33;;;;;;;12.18;7.18;;;;;;;39.66;14.62;99820.56;5053399;28;20041;-64
2023/09/20 05:46:59;;;;;;;12.27;6.90;;;;;;;39.82;13.86;99825.81;5052935;28;20052;-63
2023/09/20 05:49:25;;;;;;;9.85;6.38;;;;;;;39.96;13.97;99815.34;5052886;28;20064;-63
2023/09/20 05:51:50;;;;;;;10.73;6.80;;;;;;;40.18;13.98;99808.81;5053328;28;20098;-63
2023/09/20 05:54:19;;;;;;;11.75;6.18;;;;;;;40.31;13.69;99823.09;5053202;28;20100;-61
2023/09/20 05:56:45;;;;;;;9.90;6.60;;;;;;;40.54;13.67;99825.78;5053030;28;20021;-63
2023/09/20 05:59:11;;;;;;;10.55;6.65;;;;;;;40.77;13.30;99811.66;5053176;28;20462;-62
2023/09/20 06:01:40;;;;;;;9.75;6.97;;;;;;;41.19;12.62;99812.00;5052924;28;20037;-63
2023/09/20 06:04:11;;;;;;;9.02;6.80;;;;;;;41.52;13.11;99828.34;5053061;28;20669;-62
2023/09/20 06:06:40;;;;;;;9.38;6.70;;;;;;;41.78;12.46;99813.41;5053348;28;20052;-62
2023/09/20 06:09:05;;;;;;;9.25;6.72;;;;;;;42.21;12.09;99827.66;5052933;28;20037;-62
2023/09/20 06:11:32;;;;;;;8.85;6.70;;;;;;;42.61;12.14;99835.72;5052553;28;20509;-64
2023/09/20 06:13:57;;;;;;;8.00;6.43;;;;;;;42.60;11.86;99820.84;5052200;28;20088;-62
2023/09/20 06:16:23;;;;;;;11.40;6.70;;;;;;;43.02;11.60;99810.78;5052076;28;20033;-63
2023/09/20 06:18:49;;;;;;;8.07;6.40;;;;;;;43.55;11.18;99815.94;5051932;28;20062;-64
2023/09/20 06:21:17;;;;;;;9.15;6.63;;;;;;;43.71;11.22;99814.13;5052448;28;20072;-63
2023/09/20 06:23:46;;;;;;;11.00;6.65;;;;;;;44.19;11.03;99815.72;5052372;28;20118;-63
2023/09/20 06:26:12;;;;;;;12.50;6.88;;;;;;;44.02;10.95;99811.94;5051704;28;20025;-64
2023/09/20 06:28:40;;;;;;;7.35;6.45;;;;;;;43.51;11.04;99815.81;5051973;28;20448;-66
2023/09/20 06:31:09;;;;;;;12.50;6.60;;;;;;;43.76;11.02;99812.25;5052166;28;20029;-64
2023/09/20 06:33:34;;;;;;;10.85;6.95;;;;;;;44.16;10.61;99812.44;5051608;28;20029;-63
2023/09/20 06:36:00;;;;;;;10.90;6.78;;;;;;;44.44;10.67;99814.53;5051962;28;20035;-62
2023/09/20 06:38:25;;;;;;;8.45;6.75;;;;;;;45.01;10.12;99814.69;5052290;28;20466;-64
2023/09/20 06:40:53;;;;;;;17.30;7.13;;;;;;;45.73;9.92;99817.91;5052057;28;20116;-62
2023/09/20 06:43:19;;;;;;;11.82;6.85;;;;;;;45.63;9.76;99818.41;5051516;28;20079;-63
2023/09/20 06:45:52;;;;;;;12.18;6.57;;;;;;;46.15;9.51;99822.19;5052248;28;20064;-64
2023/09/20 06:48:22;;;;;;;10.40;6.35;;;;;;;46.27;9.46;99822.09;5052118;28;20029;-62
2023/09/20 06:50:50;;;;;;;11.13;6.38;;;;;;;46.69;8.87;99817.81;5051536;28;20112;-61
2023/09/20 06:53:17;;;;;;;15.80;7.10;;;;;;;47.03;8.77;99816.53;5051676;28;20044;-64
2023/09/20 06:55:49;;;;;;;8.38;6.55;;;;;;;47.39;8.95;99828.63;5051831;28;20033;-62
2023/09/20 06:58:14;;;;;;;12.20;6.65;;;;;;;47.23;8.64;99828.69;5052147;28;20043;-64
2023/09/20 07:00:40;;;;;;;14.27;7.00;;;;;;;47.16;8.88;99820.84;5050215;28;20033;-63
2023/09/20 07:03:06;;;;;;;10.85;6.75;;;;;;;47.34;8.60;99829.72;5051338;28;20112;-65
2023/09/20 07:05:31;;;;;;;9.57;6.75;;;;;;;47.79;8.41;99810.34;5051701;28;20408;-64
2023/09/20 07:07:58;;;;;;;13.82;7.03;;;;;;;48.27;7.94;99820.47;5051738;28;20017;-62
2023/09/20 07:10:25;;;;;;;11.93;6.90;;;;;;;48.58;8.43;99821.34;5051424;28;20055;-64
2023/09/20 07:12:54;;;;;;;9.35;6.72;;;;;;;48.95;7.80;99823.47;5005684;28;1304756;-63
2023/09/20 07:15:20;;;;;;;12.77;7.47;;;;;;;49.30;7.99;99826.34;5052344;28;20041;-60
2023/09/20 07:17:58;;;;;;;7.80;6.50;;;;;;;49.69;7.52;99820.25;5052978;28;20025;-62
2023/09/20 07:20:25;;;;;;;8.75;6.50;;;;;;;50.01;7.16;99830.28;5052124;28;20083;-61
2023/09/20 07:22:51;;;;;;;11.05;6.32;;;;;;;50.34;7.04;99812.25;5052185;28;20032;-62
2023/09/20 07:25:20;;;;;;;10.60;6.68;;;;;;;50.33;7.09;99819.16;5052582;28;20033;-63
2023/09/20 07:27:49;;;;;;;10.60;6.85;;;;;;;50.37;7.11;99836.28;5052677;28;20044;-63
2023/09/20 07:30:22;;;;;;;9.10;6.20;;;;;;;49.88;7.32;99829.78;5052081;28;20039;-64
2023/09/20 07:32:50;;;;;;;14.30;6.95;;;;;;;49.73;7.28;99826.81;5052385;28;20116;-63
2023/09/20 07:36:16;;;;;;;10.07;6.88;;;;;;;48.80;7.43;99828.13;5052256;28;20029;-62
2023/09/20 07:38:12;;;;;;;8.23;6.40;;;;;;;48.40;7.76;99821.88;5047226;28;20045;-60
2023/09/20 07:40:40;;;;;;;14.35;6.90;;;;;;;47.47;8.28;99793.53;5051675;28;20029;-66
2023/09/20 07:43:06;;;;;;;6.88;6.07;;;;;;;46.99;8.51;99820.09;5052032;28;20139;-63
2023/09/20 07:45:41;;;;;;;9.52;6.07;;;;;;;46.49;9.23;99831.09;5051771;28;20040;-63
2023/09/20 07:48:16;;;;;;;9.32;6.38;;;;;;;45.70;9.92;99822.28;5051938;28;20039;-63
2023/09/20 07:50:51;;;;;;;11.80;5.90;;;;;;;43.72;10.79;99820.59;5051502;28;20043;-63
2023/09/20 07:53:19;;;;;;;12.75;6.13;;;;;;;40.87;12.36;99803.72;5052043;28;20021;-62
2023/09/20 07:56:03;;;;;;;10.85;7.00;;;;;;;38.38;14.39;99820.41;5051977;28;20112;-63
2023/09/20 07:58:29;;;;;;;14.87;6.97;;;;;;;35.67;17.02;99820.91;5051557;28;20029;-64
2023/09/20 08:00:56;;;;;;;13.82;7.25;;;;;;;33.55;19.00;99822.59;5051954;28;20029;-63
2023/09/20 08:03:23;;;;;;;10.93;6.60;;;;;;;31.97;21.22;99821.50;5052095;28;20463;-63
2023/09/20 08:05:50;;;;;;;11.10;7.13;;;;;;;30.68;22.21;99828.53;5051491;28;20052;-63
2023/09/20 08:08:16;;;;;;;12.10;7.10;;;;;;;29.71;23.79;99818.59;5051648;28;20033;-63
2023/09/20 08:10:43;;;;;;;11.98;6.93;;;;;;;29.03;24.88;99822.91;5052414;28;20060;-62
2023/09/20 08:13:10;;;;;;;12.38;7.13;;;;;;;28.46;25.36;99819.00;5054915;28;20148;-62
2023/09/20 08:15:42;;;;;;;14.02;6.90;;;;;;;27.98;26.38;99825.63;5055350;28;20037;-63
2023/09/20 08:20:56;;;;;;;16.33;7.15;;;;;;;27.43;27.65;99822.91;5054739;28;20075;-62
2023/09/20 09:02:01;;;;;;;12.15;6.90;;;;;;;26.40;29.12;99800.81;5054644;28;20043;-65
2023/09/20 09:04:28;;;;;;;12.63;7.20;;;;;;;26.33;29.47;99807.22;5054246;28;20033;-63
2023/09/20 09:06:53;;;;;;;12.52;7.40;;;;;;;26.34;29.88;99803.41;5054116;28;20106;-64
2023/09/20 09:09:19;;;;;;;14.00;7.82;;;;;;;26.44;29.24;99794.63;5053850;28;20037;-63
2023/09/20 09:11:45;;;;;;;14.32;8.25;;;;;;;26.56;29.26;99794.69;5054600;28;20364;-64
2023/09/20 09:14:13;;;;;;;12.07;7.30;;;;;;;26.64;29.09;99794.38;5053899;28;20068;-64
2023/09/20 09:16:39;;;;;;;13.48;7.85;;;;;;;26.65;29.21;99792.47;5053635;28;20091;-65
2023/09/20 09:19:06;;;;;;;9.90;7.53;;;;;;;26.63;28.74;99787.22;5053564;28;20025;-64
2023/09/20 09:21:34;;;;;;;15.93;7.20;;;;;;;26.58;29.41;99789.00;5053761;28;20131;-64
2023/09/20 09:24:00;;;;;;;13.30;7.25;;;;;;;26.55;28.93;99786.72;5053042;28;20036;-64
2023/09/20 09:26:26;;;;;;;10.20;7.25;;;;;;;26.60;29.06;99790.41;5052727;28;20033;-65
2023/09/20 09:28:52;;;;;;;13.70;7.55;;;;;;;26.69;29.03;99790.94;5053712;28;20032;-65
2023/09/20 09:31:18;;;;;;;10.00;6.72;;;;;;;26.72;28.33;99784.97;5053943;28;20039;-64
2023/09/20 09:33:43;;;;;;;12.18;6.82;;;;;;;26.72;28.53;99793.22;5053701;28;20463;-63
2023/09/20 09:36:12;;;;;;;14.32;7.78;;;;;;;26.57;28.46;99781.81;5053137;28;20037;-63
2023/09/20 09:38:39;;;;;;;10.90;7.07;;;;;;;26.59;28.72;99788.75;5053364;28;20098;-63
2023/09/20 09:41:08;;;;;;;11.82;7.20;;;;;;;26.61;28.97;99786.59;5053179;28;20025;-62
2023/09/20 09:43:33;;;;;;;14.13;7.00;;;;;;;26.60;28.67;99778.63;5053395;28;20037;-63
2023/09/20 09:46:10;;;;;;;12.80;7.25;;;;;;;26.67;28.71;99776.59;5053163;28;20043;-60
2023/09/20 09:48:37;;;;;;;13.05;7.15;;;;;;;26.51;28.65;99780.84;5052779;28;20108;-63
2023/09/20 09:51:06;;;;;;;17.23;7.38;;;;;;;26.48;28.85;99771.13;5053342;28;20033;-64
2023/09/20 09:53:34;;;;;;;15.52;7.13;;;;;;;26.52;28.65;99790.75;5052919;28;20029;-62
2023/09/20 09:56:03;;;;;;;8.65;7.57;;;;;;;26.61;28.66;99774.81;5052888;28;20025;-62
2023/09/20 09:58:29;;;;;;;13.73;7.57;;;;;;;26.55;28.52;99770.25;5052958;28;20029;-61
2023/09/20 10:00:57;;;;;;;13.10;7.07;;;;;;;26.51;28.46;99770.69;5052586;28;20115;-64
2023/09/20 10:03:32;;;;;;;9.20;6.85;;;;;;;26.55;28.71;99773.00;5052775;28;20075;-64
2023/09/20 10:06:01;;;;;;;12.87;7.43;;;;;;;26.58;28.49;99781.56;5053209;28;20032;-63
2023/09/20 10:08:31;;;;;;;12.93;7.75;;;;;;;26.56;28.74;99763.69;5052342;28;20130;-63
2023/09/20 10:11:02;;;;;;;13.60;7.25;;;;;;;26.61;28.37;99774.81;5053126;28;20114;-63
2023/09/20 10:13:29;;;;;;;14.38;7.00;;;;;;;26.54;28.80;99758.41;5052857;28;20040;-63
2023/09/20 10:15:57;;;;;;;11.77;7.05;;;;;;;26.63;28.70;99756.19;5052346;28;20029;-63
2023/09/20 10:18:28;;;;;;;17.55;7.57;;;;;;;26.64;28.17;99747.69;5052434;28;20048;-63
2023/09/20 10:21:04;;;;;;;14.40;7.00;;;;;;;26.67;28.12;99760.13;5052863;28;20127;-63
2023/09/20 10:23:35;;;;;;;15.02;7.30;;;;;;;26.59;28.28;99768.69;5052558;28;20025;-63
2023/09/20 10:26:00;;;;;;;9.73;6.70;;;;;;;26.55;28.04;99778.47;5052621;28;20056;-62
2023/09/20 10:28:31;;;;;;;15.48;7.13;;;;;;;26.50;28.39;99760.75;5053075;28;20133;-63
2023/09/20 10:31:01;;;;;;;13.60;7.28;;;;;;;26.53;28.10;99766.88;5052922;28;20032;-63
2023/09/20 10:33:46;;;;;;;13.63;6.72;;;;;;;26.47;27.60;99742.00;5052411;28;20037;-65
2023/09/20 10:36:18;;;;;;;12.68;7.35;;;;;;;26.48;27.93;99765.66;5052549;28;20041;-67
2023/09/20 10:38:46;;;;;;;9.85;6.88;;;;;;;26.42;28.18;99769.31;5052534;28;20104;-64
2023/09/20 10:41:12;;;;;;;11.38;7.55;;;;;;;26.43;27.93;99762.75;5052295;28;20474;-64
2023/09/20 10:43:38;;;;;;;13.25;7.47;;;;;;;26.45;27.97;99755.13;5051713;28;20044;-62
2023/09/20 10:46:09;;;;;;;10.30;6.88;;;;;;;26.48;27.92;99751.09;5052426;28;20025;-62
2023/09/20 10:48:39;;;;;;;16.77;7.10;;;;;;;26.28;27.93;99732.97;5052620;28;20470;-62
2023/09/20 10:51:06;;;;;;;14.55;6.70;;;;;;;26.33;28.05;99754.25;5052118;28;20029;-64
2023/09/20 10:53:55;;;;;;;11.60;7.15;;;;;;;26.48;28.25;99767.56;5052096;28;20036;-59
2023/09/20 10:56:45;;;;;;;12.60;7.25;;;;;;;26.56;28.06;99764.50;5051488;28;20037;-64
2023/09/20 10:59:16;;;;;;;13.18;6.85;;;;;;;26.48;27.66;99773.06;5052831;28;20028;-64
2023/09/20 11:01:53;;;;;;;16.52;6.60;;;;;;;26.42;27.42;99765.75;5051808;28;20572;-64
2023/09/20 11:04:19;;;;;;;14.70;6.50;;;;;;;26.24;27.95;99764.69;5051292;28;20025;-63
2023/09/20 11:06:48;;;;;;;13.35;7.13;;;;;;;26.19;28.26;99762.63;5052323;28;20040;-64
2023/09/20 11:09:15;;;;;;;13.20;7.03;;;;;;;26.17;27.99;99758.47;5052450;28;20029;-66
2023/09/20 11:11:42;;;;;;;13.60;6.75;;;;;;;26.10;28.09;99753.00;5052027;28;20450;-65
2023/09/20 11:14:09;;;;;;;13.13;7.68;;;;;;;26.16;28.67;99757.59;5052059;28;20052;-64
2023/09/20 11:16:34;;;;;;;18.75;7.10;;;;;;;26.22;28.32;99744.88;5052357;28;20029;-62
2023/09/20 11:19:00;;;;;;;11.13;6.82;;;;;;;26.27;28.28;99752.41;5052702;28;20368;-63
2023/09/20 11:21:26;;;;;;;15.68;7.30;;;;;;;26.28;28.22;99754.94;5051460;28;20033;-65
2023/09/20 11:23:52;;;;;;;15.90;8.13;;;;;;;26.25;28.73;99749.91;5051778;28;20033;-62
2023/09/20 11:26:27;;;;;;;11.90;6.93;;;;;;;26.35;28.66;99754.84;5052153;28;20072;-64
2023/09/20 11:28:53;;;;;;;16.95;7.00;;;;;;;26.26;28.18;99745.25;5052214;28;20067;-64
2023/09/20 11:31:23;;;;;;;12.57;6.57;;;;;;;26.12;27.95;99723.44;5051513;28;20104;-64
2023/09/20 11:33:59;;;;;;;12.80;7.97;;;;;;;26.36;28.59;99757.34;5051544;28;20025;-64
2023/09/20 11:36:26;;;;;;;16.50;7.10;;;;;;;26.28;28.17;99752.19;5051738;28;20056;-63
2023/09/20 11:38:53;;;;;;;11.38;6.47;;;;;;;26.19;28.06;99735.19;5051899;28;20021;-64
2023/09/20 11:41:23;;;;;;;10.73;6.45;;;;;;;26.20;27.74;99747.84;5051139;28;20476;-62
2023/09/20 11:43:56;;;;;;;14.43;6.93;;;;;;;26.14;27.93;99761.59;5051547;28;20032;-63
2023/09/20 11:46:26;;;;;;;17.88;6.57;;;;;;;25.97;27.98;99737.53;5053583;28;20037;-67
2023/09/20 11:48:57;;;;;;;13.73;6.30;;;;;;;26.01;28.38;99727.78;5055761;28;20123;-67
2023/09/20 11:51:22;;;;;;;9.20;6.38;;;;;;;26.00;27.95;99730.75;5055734;28;20029;-64
2023/09/20 11:53:48;;;;;;;13.90;6.63;;;;;;;25.99;27.58;99748.25;5055504;28;20435;-66
2023/09/20 11:56:22;;;;;;;14.45;6.28;;;;;;;25.94;27.43;99727.84;5055482;28;20029;-66
2023/09/20 11:58:49;;;;;;;9.90;6.43;;;;;;;25.88;27.82;99728.78;5055669;28;20111;-67
2023/09/20 12:01:21;;;;;;;11.13;6.50;;;;;;;25.83;28.32;99736.00;5055425;28;20117;-63
2023/09/20 12:03:46;;;;;;;13.52;5.95;;;;;;;25.78;27.52;99728.44;5053926;28;20215;-66
2023/09/20 12:06:12;;;;;;;11.15;6.45;;;;;;;25.73;28.13;99725.53;5055315;28;20107;-63
2023/09/20 12:08:37;;;;;;;17.67;6.03;;;;;;;25.63;28.22;99720.56;5055131;28;20052;-63
2023/09/20 12:11:03;;;;;;;11.82;5.93;;;;;;;25.52;28.48;99719.41;5055134;28;20104;-64
2023/09/20 12:13:28;;;;;;;7.97;6.10;;;;;;;25.52;28.06;99722.16;5054871;28;20432;-63